sensor_id;sensor_type;location;lat;lon;timestamp;P1;durP1;ratioP1;P2;durP2;ratioP2
69253;SDS011;56364;41.816;12.448;2022-11-11T00:00:34;19.67;;;6.43;;
69253;SDS011;56364;41.816;12.448;2022-11-11T00:03:00;12.27;;;6.10;;
69253;SDS011;56364;41.816;12.448;2022-11-11T00:05:27;18.30;;;7.25;;
69253;SDS011;56364;41.816;12.448;2022-11-11T00:10:23;9.43;;;5.65;;
69253;SDS011;56364;41.816;12.448;2022-11-11T00:15:21;15.13;;;5.88;;
69253;SDS011;56364;41.816;12.448;2022-11-11T00:20:32;9.75;;;5.40;;
69253;SDS011;56364;41.816;12.448;2022-11-11T00:23:20;14.50;;;6.50;;
69253;SDS011;56364;41.816;12.448;2022-11-11T00:26:05;13.23;;;5.80;;
69253;SDS011;56364;41.816;12.448;2022-11-11T00:28:32;15.55;;;6.93;;
69253;SDS011;56364;41.816;12.448;2022-11-11T00:31:05;15.48;;;6.97;;
69253;SDS011;56364;41.816;12.448;2022-11-11T00:33:32;16.92;;;7.15;;
69253;SDS011;56364;41.816;12.448;2022-11-11T00:35:58;14.85;;;6.18;;
69253;SDS011;56364;41.816;12.448;2022-11-11T00:41:09;15.65;;;6.30;;
69253;SDS011;56364;41.816;12.448;2022-11-11T00:46:01;14.32;;;6.40;;
69253;SDS011;56364;41.816;12.448;2022-11-11T00:48:46;12.32;;;6.32;;
69253;SDS011;56364;41.816;12.448;2022-11-11T00:51:30;16.02;;;6.50;;
69253;SDS011;56364;41.816;12.448;2022-11-11T00:53:56;17.02;;;6.82;;
69253;SDS011;56364;41.816;12.448;2022-11-11T00:56:22;16.33;;;6.80;;
69253;SDS011;56364;41.816;12.448;2022-11-11T00:58:48;14.98;;;6.30;;
69253;SDS011;56364;41.816;12.448;2022-11-11T01:01:14;20.40;;;6.93;;
69253;SDS011;56364;41.816;12.448;2022-11-11T01:03:41;13.90;;;5.85;;
69253;SDS011;56364;41.816;12.448;2022-11-11T01:06:08;16.70;;;6.45;;
69253;SDS011;56364;41.816;12.448;2022-11-11T01:08:34;13.27;;;5.93;;
69253;SDS011;56364;41.816;12.448;2022-11-11T01:13:30;11.70;;;6.55;;
69253;SDS011;56364;41.816;12.448;2022-11-11T01:16:04;13.63;;;7.50;;
69253;SDS011;56364;41.816;12.448;2022-11-11T01:18:30;12.48;;;5.82;;
69253;SDS011;56364;41.816;12.448;2022-11-11T01:23:22;16.23;;;5.85;;
69253;SDS011;56364;41.816;12.448;2022-11-11T01:28:16;15.93;;;6.82;;
69253;SDS011;56364;41.816;12.448;2022-11-11T01:30:43;12.18;;;5.93;;
69253;SDS011;56364;41.816;12.448;2022-11-11T01:33:09;15.90;;;6.60;;
69253;SDS011;56364;41.816;12.448;2022-11-11T01:35:38;11.07;;;5.72;;
69253;SDS011;56364;41.816;12.448;2022-11-11T01:38:05;19.35;;;6.85;;
69253;SDS011;56364;41.816;12.448;2022-11-11T01:40:39;15.85;;;6.32;;
69253;SDS011;56364;41.816;12.448;2022-11-11T01:48:34;21.48;;;7.10;;
69253;SDS011;56364;41.816;12.448;2022-11-11T01:51:30;13.05;;;5.80;;
69253;SDS011;56364;41.816;12.448;2022-11-11T01:53:59;11.32;;;5.85;;
69253;SDS011;56364;41.816;12.448;2022-11-11T01:56:27;14.70;;;5.78;;
69253;SDS011;56364;41.816;12.448;2022-11-11T02:01:19;11.10;;;6.43;;
69253;SDS011;56364;41.816;12.448;2022-11-11T02:06:31;11.75;;;5.45;;
69253;SDS011;56364;41.816;12.448;2022-11-11T02:08:57;12.63;;;6.00;;
69253;SDS011;56364;41.816;12.448;2022-11-11T02:11:24;13.48;;;6.00;;
69253;SDS011;56364;41.816;12.448;2022-11-11T02:14:09;14.55;;;5.90;;
69253;SDS011;56364;41.816;12.448;2022-11-11T02:16:54;12.80;;;5.43;;
69253;SDS011;56364;41.816;12.448;2022-11-11T02:19:21;12.43;;;5.35;;
69253;SDS011;56364;41.816;12.448;2022-11-11T02:21:53;10.73;;;5.20;;
69253;SDS011;56364;41.816;12.448;2022-11-11T02:24:20;15.48;;;5.18;;
69253;SDS011;56364;41.816;12.448;2022-11-11T02:26:46;10.65;;;5.88;;
69253;SDS011;56364;41.816;12.448;2022-11-11T02:29:13;13.02;;;5.03;;
69253;SDS011;56364;41.816;12.448;2022-11-11T02:31:40;11.13;;;5.45;;
69253;SDS011;56364;41.816;12.448;2022-11-11T02:34:07;15.20;;;6.05;;
69253;SDS011;56364;41.816;12.448;2022-11-11T02:36:33;15.80;;;5.75;;
69253;SDS011;56364;41.816;12.448;2022-11-11T02:38:59;12.43;;;6.15;;
69253;SDS011;56364;41.816;12.448;2022-11-11T02:41:25;9.38;;;4.68;;
69253;SDS011;56364;41.816;12.448;2022-11-11T02:44:10;9.90;;;4.75;;
69253;SDS011;56364;41.816;12.448;2022-11-11T02:46:36;9.70;;;5.25;;
69253;SDS011;56364;41.816;12.448;2022-11-11T02:49:02;13.38;;;5.35;;
69253;SDS011;56364;41.816;12.448;2022-11-11T02:51:28;10.35;;;5.03;;
69253;SDS011;56364;41.816;12.448;2022-11-11T02:53:54;12.10;;;5.03;;
69253;SDS011;56364;41.816;12.448;2022-11-11T02:56:27;9.05;;;5.10;;
69253;SDS011;56364;41.816;12.448;2022-11-11T02:59:12;12.57;;;5.80;;
69253;SDS011;56364;41.816;12.448;2022-11-11T03:01:38;12.15;;;5.13;;
69253;SDS011;56364;41.816;12.448;2022-11-11T03:04:04;11.00;;;5.32;;
69253;SDS011;56364;41.816;12.448;2022-11-11T03:08:56;13.10;;;5.43;;
69253;SDS011;56364;41.816;12.448;2022-11-11T03:11:22;10.35;;;4.95;;
69253;SDS011;56364;41.816;12.448;2022-11-11T03:13:57;14.50;;;5.80;;
69253;SDS011;56364;41.816;12.448;2022-11-11T03:16:23;10.75;;;5.38;;
69253;SDS011;56364;41.816;12.448;2022-11-11T03:19:08;8.07;;;4.35;;
69253;SDS011;56364;41.816;12.448;2022-11-11T03:21:34;10.48;;;5.18;;
69253;SDS011;56364;41.816;12.448;2022-11-11T03:26:26;9.70;;;4.43;;
69253;SDS011;56364;41.816;12.448;2022-11-11T03:28:52;11.40;;;5.05;;
69253;SDS011;56364;41.816;12.448;2022-11-11T03:31:18;12.70;;;5.57;;
69253;SDS011;56364;41.816;12.448;2022-11-11T03:33:44;11.82;;;5.68;;
69253;SDS011;56364;41.816;12.448;2022-11-11T03:38:36;8.10;;;4.18;;
69253;SDS011;56364;41.816;12.448;2022-11-11T03:43:30;12.40;;;4.38;;
69253;SDS011;56364;41.816;12.448;2022-11-11T03:45:57;12.23;;;4.80;;
69253;SDS011;56364;41.816;12.448;2022-11-11T03:48:23;16.40;;;4.72;;
69253;SDS011;56364;41.816;12.448;2022-11-11T03:50:49;9.95;;;5.05;;
69253;SDS011;56364;41.816;12.448;2022-11-11T03:55:42;9.57;;;4.80;;
69253;SDS011;56364;41.816;12.448;2022-11-11T03:58:08;12.10;;;4.68;;
69253;SDS011;56364;41.816;12.448;2022-11-11T04:00:34;9.75;;;4.18;;
69253;SDS011;56364;41.816;12.448;2022-11-11T04:05:45;12.27;;;5.00;;
69253;SDS011;56364;41.816;12.448;2022-11-11T04:08:29;10.27;;;4.15;;
69253;SDS011;56364;41.816;12.448;2022-11-11T04:11:15;11.73;;;4.80;;
69253;SDS011;56364;41.816;12.448;2022-11-11T04:13:44;8.60;;;4.38;;
69253;SDS011;56364;41.816;12.448;2022-11-11T04:16:30;7.57;;;4.40;;
69253;SDS011;56364;41.816;12.448;2022-11-11T04:21:41;8.32;;;4.45;;
69253;SDS011;56364;41.816;12.448;2022-11-11T04:24:07;8.95;;;4.53;;
69253;SDS011;56364;41.816;12.448;2022-11-11T04:26:53;8.77;;;4.65;;
69253;SDS011;56364;41.816;12.448;2022-11-11T04:29:19;11.05;;;4.90;;
69253;SDS011;56364;41.816;12.448;2022-11-11T04:34:42;7.95;;;4.20;;
69253;SDS011;56364;41.816;12.448;2022-11-11T04:37:09;10.13;;;4.53;;
69253;SDS011;56364;41.816;12.448;2022-11-11T04:39:35;8.95;;;5.03;;
69253;SDS011;56364;41.816;12.448;2022-11-11T04:42:20;10.40;;;4.90;;
69253;SDS011;56364;41.816;12.448;2022-11-11T04:44:46;11.02;;;4.78;;
69253;SDS011;56364;41.816;12.448;2022-11-11T04:47:31;9.95;;;5.00;;
69253;SDS011;56364;41.816;12.448;2022-11-11T04:52:23;9.57;;;4.45;;
69253;SDS011;56364;41.816;12.448;2022-11-11T04:54:56;7.82;;;4.47;;
69253;SDS011;56364;41.816;12.448;2022-11-11T04:57:45;10.90;;;4.38;;
69253;SDS011;56364;41.816;12.448;2022-11-11T05:00:16;8.45;;;4.60;;
69253;SDS011;56364;41.816;12.448;2022-11-11T05:02:43;12.18;;;5.72;;
69253;SDS011;56364;41.816;12.448;2022-11-11T05:08:13;11.35;;;4.97;;
69253;SDS011;56364;41.816;12.448;2022-11-11T05:11:15;9.63;;;4.55;;
69253;SDS011;56364;41.816;12.448;2022-11-11T05:13:41;8.88;;;4.72;;
69253;SDS011;56364;41.816;12.448;2022-11-11T05:19:11;8.48;;;4.55;;
69253;SDS011;56364;41.816;12.448;2022-11-11T05:21:56;10.55;;;4.55;;
69253;SDS011;56364;41.816;12.448;2022-11-11T05:24:24;8.65;;;4.13;;
69253;SDS011;56364;41.816;12.448;2022-11-11T05:27:08;10.60;;;4.55;;
69253;SDS011;56364;41.816;12.448;2022-11-11T05:32:00;9.43;;;4.38;;
69253;SDS011;56364;41.816;12.448;2022-11-11T05:36:52;9.52;;;4.57;;
69253;SDS011;56364;41.816;12.448;2022-11-11T05:41:44;11.48;;;4.40;;
69253;SDS011;56364;41.816;12.448;2022-11-11T05:44:10;13.75;;;4.72;;
69253;SDS011;56364;41.816;12.448;2022-11-11T05:46:36;8.98;;;4.18;;
69253;SDS011;56364;41.816;12.448;2022-11-11T05:49:02;11.80;;;4.95;;
69253;SDS011;56364;41.816;12.448;2022-11-11T05:51:44;10.25;;;4.53;;
69253;SDS011;56364;41.816;12.448;2022-11-11T05:54:10;11.48;;;4.97;;
69253;SDS011;56364;41.816;12.448;2022-11-11T05:56:36;11.38;;;4.15;;
69253;SDS011;56364;41.816;12.448;2022-11-11T06:01:28;10.45;;;5.15;;
69253;SDS011;56364;41.816;12.448;2022-11-11T06:06:20;12.95;;;5.25;;
69253;SDS011;56364;41.816;12.448;2022-11-11T06:11:12;10.20;;;4.28;;
69253;SDS011;56364;41.816;12.448;2022-11-11T06:16:04;10.48;;;4.18;;
69253;SDS011;56364;41.816;12.448;2022-11-11T06:20:57;11.57;;;4.65;;
69253;SDS011;56364;41.816;12.448;2022-11-11T06:23:23;8.88;;;4.30;;
69253;SDS011;56364;41.816;12.448;2022-11-11T06:25:50;11.38;;;5.03;;
69253;SDS011;56364;41.816;12.448;2022-11-11T06:28:35;11.48;;;4.40;;
69253;SDS011;56364;41.816;12.448;2022-11-11T06:31:01;8.45;;;4.55;;
69253;SDS011;56364;41.816;12.448;2022-11-11T06:35:53;9.70;;;3.17;;
69253;SDS011;56364;41.816;12.448;2022-11-11T06:38:19;9.75;;;4.57;;
69253;SDS011;56364;41.816;12.448;2022-11-11T06:43:25;10.23;;;4.25;;
69253;SDS011;56364;41.816;12.448;2022-11-11T06:45:52;9.63;;;4.07;;
69253;SDS011;56364;41.816;12.448;2022-11-11T06:48:18;9.05;;;4.30;;
69253;SDS011;56364;41.816;12.448;2022-11-11T06:50:45;9.57;;;4.10;;
69253;SDS011;56364;41.816;12.448;2022-11-11T06:53:12;12.73;;;4.10;;
69253;SDS011;56364;41.816;12.448;2022-11-11T06:55:38;7.90;;;3.42;;
69253;SDS011;56364;41.816;12.448;2022-11-11T06:58:05;10.60;;;4.55;;
69253;SDS011;56364;41.816;12.448;2022-11-11T07:00:32;9.70;;;4.07;;
69253;SDS011;56364;41.816;12.448;2022-11-11T07:02:58;7.88;;;4.10;;
69253;SDS011;56364;41.816;12.448;2022-11-11T07:05:24;11.70;;;3.95;;
69253;SDS011;56364;41.816;12.448;2022-11-11T07:10:16;10.50;;;3.50;;
69253;SDS011;56364;41.816;12.448;2022-11-11T07:15:09;9.13;;;3.90;;
69253;SDS011;56364;41.816;12.448;2022-11-11T07:17:35;8.05;;;3.33;;
69253;SDS011;56364;41.816;12.448;2022-11-11T07:20:01;7.63;;;3.28;;
69253;SDS011;56364;41.816;12.448;2022-11-11T07:22:27;11.57;;;3.33;;
69253;SDS011;56364;41.816;12.448;2022-11-11T07:24:53;8.10;;;3.53;;
69253;SDS011;56364;41.816;12.448;2022-11-11T07:27:19;7.15;;;3.50;;
69253;SDS011;56364;41.816;12.448;2022-11-11T07:29:45;8.15;;;3.63;;
69253;SDS011;56364;41.816;12.448;2022-11-11T07:32:13;7.50;;;3.35;;
69253;SDS011;56364;41.816;12.448;2022-11-11T07:34:41;7.55;;;3.80;;
69253;SDS011;56364;41.816;12.448;2022-11-11T07:37:08;9.85;;;3.72;;
69253;SDS011;56364;41.816;12.448;2022-11-11T07:42:00;9.93;;;3.92;;
69253;SDS011;56364;41.816;12.448;2022-11-11T07:44:26;6.93;;;3.33;;
69253;SDS011;56364;41.816;12.448;2022-11-11T07:49:18;9.55;;;3.85;;
69253;SDS011;56364;41.816;12.448;2022-11-11T07:54:10;9.38;;;3.53;;
69253;SDS011;56364;41.816;12.448;2022-11-11T07:56:37;7.82;;;3.90;;
69253;SDS011;56364;41.816;12.448;2022-11-11T08:01:29;7.15;;;3.58;;
69253;SDS011;56364;41.816;12.448;2022-11-11T08:06:21;7.30;;;3.50;;
69253;SDS011;56364;41.816;12.448;2022-11-11T08:08:48;6.45;;;3.22;;
69253;SDS011;56364;41.816;12.448;2022-11-11T08:11:14;8.10;;;3.03;;
69253;SDS011;56364;41.816;12.448;2022-11-11T08:13:41;6.70;;;2.90;;
69253;SDS011;56364;41.816;12.448;2022-11-11T08:16:12;7.68;;;3.03;;
69253;SDS011;56364;41.816;12.448;2022-11-11T08:18:39;6.55;;;3.03;;
69253;SDS011;56364;41.816;12.448;2022-11-11T08:21:05;9.30;;;3.10;;
69253;SDS011;56364;41.816;12.448;2022-11-11T08:23:32;11.07;;;3.35;;
69253;SDS011;56364;41.816;12.448;2022-11-11T08:26:02;7.55;;;3.10;;
69253;SDS011;56364;41.816;12.448;2022-11-11T08:28:29;9.25;;;3.10;;
69253;SDS011;56364;41.816;12.448;2022-11-11T08:30:59;5.50;;;3.22;;
69253;SDS011;56364;41.816;12.448;2022-11-11T08:33:25;7.72;;;2.97;;
69253;SDS011;56364;41.816;12.448;2022-11-11T08:35:51;8.88;;;3.30;;
69253;SDS011;56364;41.816;12.448;2022-11-11T08:38:18;6.28;;;2.88;;
69253;SDS011;56364;41.816;12.448;2022-11-11T08:40:44;7.63;;;2.97;;
69253;SDS011;56364;41.816;12.448;2022-11-11T08:45:36;6.22;;;2.83;;
69253;SDS011;56364;41.816;12.448;2022-11-11T08:50:28;6.43;;;3.03;;
69253;SDS011;56364;41.816;12.448;2022-11-11T08:55:20;7.70;;;2.63;;
69253;SDS011;56364;41.816;12.448;2022-11-11T09:00:12;7.55;;;2.60;;
69253;SDS011;56364;41.816;12.448;2022-11-11T09:02:39;4.65;;;2.42;;
69253;SDS011;56364;41.816;12.448;2022-11-11T09:07:31;11.25;;;3.00;;
69253;SDS011;56364;41.816;12.448;2022-11-11T09:09:57;7.00;;;2.95;;
69253;SDS011;56364;41.816;12.448;2022-11-11T09:12:23;5.55;;;3.03;;
69253;SDS011;56364;41.816;12.448;2022-11-11T09:17:15;4.78;;;2.78;;
69253;SDS011;56364;41.816;12.448;2022-11-11T09:22:07;5.50;;;2.55;;
69253;SDS011;56364;41.816;12.448;2022-11-11T09:24:33;7.10;;;2.80;;
69253;SDS011;56364;41.816;12.448;2022-11-11T09:29:25;4.32;;;2.55;;
69253;SDS011;56364;41.816;12.448;2022-11-11T09:34:17;8.60;;;2.70;;
69253;SDS011;56364;41.816;12.448;2022-11-11T09:36:43;7.93;;;2.70;;
69253;SDS011;56364;41.816;12.448;2022-11-11T09:41:53;7.53;;;2.85;;
69253;SDS011;56364;41.816;12.448;2022-11-11T09:54:16;6.22;;;2.65;;
69253;SDS011;56364;41.816;12.448;2022-11-11T09:56:43;6.10;;;2.97;;
69253;SDS011;56364;41.816;12.448;2022-11-11T09:59:16;6.60;;;2.97;;
69253;SDS011;56364;41.816;12.448;2022-11-11T10:01:44;6.82;;;2.72;;
69253;SDS011;56364;41.816;12.448;2022-11-11T10:06:51;5.32;;;2.70;;
69253;SDS011;56364;41.816;12.448;2022-11-11T10:09:40;5.40;;;2.70;;
69253;SDS011;56364;41.816;12.448;2022-11-11T10:12:10;7.80;;;2.88;;
69253;SDS011;56364;41.816;12.448;2022-11-11T10:14:38;6.72;;;2.42;;
69253;SDS011;56364;41.816;12.448;2022-11-11T10:22:26;5.15;;;2.33;;
69253;SDS011;56364;41.816;12.448;2022-11-11T10:24:58;4.43;;;2.60;;
69253;SDS011;56364;41.816;12.448;2022-11-11T10:27:26;5.07;;;2.20;;
69253;SDS011;56364;41.816;12.448;2022-11-11T10:29:53;5.63;;;2.72;;
69253;SDS011;56364;41.816;12.448;2022-11-11T10:37:33;5.15;;;2.42;;
69253;SDS011;56364;41.816;12.448;2022-11-11T10:42:29;7.45;;;2.70;;
69253;SDS011;56364;41.816;12.448;2022-11-11T10:50:20;3.72;;;1.85;;
69253;SDS011;56364;41.816;12.448;2022-11-11T10:52:47;6.18;;;2.60;;
69253;SDS011;56364;41.816;12.448;2022-11-11T10:55:18;5.07;;;2.72;;
69253;SDS011;56364;41.816;12.448;2022-11-11T10:57:50;5.75;;;2.40;;
69253;SDS011;56364;41.816;12.448;2022-11-11T11:00:17;5.25;;;2.53;;
69253;SDS011;56364;41.816;12.448;2022-11-11T11:05:13;4.25;;;2.10;;
69253;SDS011;56364;41.816;12.448;2022-11-11T11:07:52;4.93;;;2.35;;
69253;SDS011;56364;41.816;12.448;2022-11-11T11:10:34;5.78;;;2.80;;
69253;SDS011;56364;41.816;12.448;2022-11-11T11:13:03;5.43;;;2.47;;
69253;SDS011;56364;41.816;12.448;2022-11-11T11:15:32;7.30;;;2.55;;
69253;SDS011;56364;41.816;12.448;2022-11-11T11:20:35;7.38;;;2.20;;
69253;SDS011;56364;41.816;12.448;2022-11-11T11:23:01;4.80;;;2.15;;
69253;SDS011;56364;41.816;12.448;2022-11-11T11:25:28;5.03;;;2.28;;
69253;SDS011;56364;41.816;12.448;2022-11-11T11:28:05;3.63;;;2.25;;
69253;SDS011;56364;41.816;12.448;2022-11-11T11:30:32;5.05;;;2.42;;
69253;SDS011;56364;41.816;12.448;2022-11-11T11:32:58;7.57;;;2.60;;
69253;SDS011;56364;41.816;12.448;2022-11-11T11:35:41;5.43;;;2.25;;
69253;SDS011;56364;41.816;12.448;2022-11-11T11:38:11;5.32;;;2.17;;
69253;SDS011;56364;41.816;12.448;2022-11-11T11:40:53;4.18;;;2.10;;
69253;SDS011;56364;41.816;12.448;2022-11-11T11:45:59;3.75;;;2.22;;
69253;SDS011;56364;41.816;12.448;2022-11-11T11:55:54;4.75;;;2.35;;
69253;SDS011;56364;41.816;12.448;2022-11-11T12:03:41;3.63;;;2.47;;
69253;SDS011;56364;41.816;12.448;2022-11-11T12:06:27;5.43;;;2.17;;
69253;SDS011;56364;41.816;12.448;2022-11-11T12:08:59;6.63;;;2.20;;
69253;SDS011;56364;41.816;12.448;2022-11-11T12:11:42;3.67;;;2.10;;
69253;SDS011;56364;41.816;12.448;2022-11-11T12:22:54;5.18;;;2.20;;
69253;SDS011;56364;41.816;12.448;2022-11-11T12:27:38;6.43;;;2.28;;
69253;SDS011;56364;41.816;12.448;2022-11-11T12:30:18;3.55;;;2.03;;
69253;SDS011;56364;41.816;12.448;2022-11-11T12:45:17;4.32;;;2.05;;
69253;SDS011;56364;41.816;12.448;2022-11-11T12:47:47;5.18;;;2.40;;
69253;SDS011;56364;41.816;12.448;2022-11-11T13:00:15;5.68;;;2.15;;
69253;SDS011;56364;41.816;12.448;2022-11-11T13:05:15;4.72;;;1.77;;
69253;SDS011;56364;41.816;12.448;2022-11-11T13:15:30;5.40;;;2.30;;
69253;SDS011;56364;41.816;12.448;2022-11-11T13:17:58;3.70;;;2.00;;
69253;SDS011;56364;41.816;12.448;2022-11-11T13:20:40;5.75;;;2.03;;
69253;SDS011;56364;41.816;12.448;2022-11-11T13:23:08;8.13;;;1.95;;
69253;SDS011;56364;41.816;12.448;2022-11-11T13:25:35;4.47;;;2.05;;
69253;SDS011;56364;41.816;12.448;2022-11-11T13:28:02;4.35;;;2.03;;
69253;SDS011;56364;41.816;12.448;2022-11-11T13:33:23;5.65;;;2.17;;
69253;SDS011;56364;41.816;12.448;2022-11-11T13:36:00;4.13;;;2.05;;
69253;SDS011;56364;41.816;12.448;2022-11-11T13:40:53;6.00;;;2.10;;
69253;SDS011;56364;41.816;12.448;2022-11-11T13:45:50;5.55;;;2.03;;
69253;SDS011;56364;41.816;12.448;2022-11-11T13:48:19;4.00;;;2.05;;
69253;SDS011;56364;41.816;12.448;2022-11-11T13:50:46;3.28;;;1.85;;
69253;SDS011;56364;41.816;12.448;2022-11-11T13:53:13;2.97;;;1.88;;
69253;SDS011;56364;41.816;12.448;2022-11-11T13:55:48;4.38;;;2.10;;
69253;SDS011;56364;41.816;12.448;2022-11-11T13:58:29;4.57;;;2.13;;
69253;SDS011;56364;41.816;12.448;2022-11-11T14:00:59;3.55;;;1.88;;
69253;SDS011;56364;41.816;12.448;2022-11-11T14:11:02;3.33;;;1.70;;
69253;SDS011;56364;41.816;12.448;2022-11-11T14:15:58;3.83;;;2.10;;
69253;SDS011;56364;41.816;12.448;2022-11-11T14:38:59;6.60;;;1.90;;
69253;SDS011;56364;41.816;12.448;2022-11-11T14:57:29;4.35;;;1.98;;
69253;SDS011;56364;41.816;12.448;2022-11-11T14:59:56;5.18;;;2.05;;
69253;SDS011;56364;41.816;12.448;2022-11-11T15:02:28;4.53;;;1.90;;
69253;SDS011;56364;41.816;12.448;2022-11-11T15:04:59;6.50;;;2.15;;
69253;SDS011;56364;41.816;12.448;2022-11-11T15:07:49;5.38;;;2.00;;
69253;SDS011;56364;41.816;12.448;2022-11-11T15:18:26;4.18;;;1.77;;
69253;SDS011;56364;41.816;12.448;2022-11-11T15:33:05;3.95;;;1.90;;
69253;SDS011;56364;41.816;12.448;2022-11-11T15:40:29;6.15;;;1.98;;
69253;SDS011;56364;41.816;12.448;2022-11-11T15:42:56;6.95;;;1.98;;
69253;SDS011;56364;41.816;12.448;2022-11-11T15:45:23;3.50;;;1.83;;
69253;SDS011;56364;41.816;12.448;2022-11-11T15:47:52;3.03;;;1.70;;
69253;SDS011;56364;41.816;12.448;2022-11-11T15:52:54;3.50;;;1.90;;
69253;SDS011;56364;41.816;12.448;2022-11-11T15:55:24;4.72;;;2.08;;
69253;SDS011;56364;41.816;12.448;2022-11-11T15:57:50;4.00;;;1.58;;
69253;SDS011;56364;41.816;12.448;2022-11-11T16:02:42;5.40;;;1.63;;
69253;SDS011;56364;41.816;12.448;2022-11-11T16:05:15;4.35;;;1.55;;
69253;SDS011;56364;41.816;12.448;2022-11-11T16:07:43;3.03;;;1.80;;
69253;SDS011;56364;41.816;12.448;2022-11-11T16:10:29;4.35;;;1.90;;
69253;SDS011;56364;41.816;12.448;2022-11-11T16:15:32;4.72;;;1.98;;
69253;SDS011;56364;41.816;12.448;2022-11-11T16:18:02;3.25;;;1.73;;
69253;SDS011;56364;41.816;12.448;2022-11-11T16:20:31;4.63;;;1.83;;
69253;SDS011;56364;41.816;12.448;2022-11-11T16:22:59;3.10;;;1.90;;
69253;SDS011;56364;41.816;12.448;2022-11-11T16:25:26;3.42;;;2.00;;
69253;SDS011;56364;41.816;12.448;2022-11-11T16:27:52;4.43;;;1.73;;
69253;SDS011;56364;41.816;12.448;2022-11-11T16:32:53;3.80;;;2.00;;
69253;SDS011;56364;41.816;12.448;2022-11-11T16:35:22;5.07;;;2.25;;
69253;SDS011;56364;41.816;12.448;2022-11-11T16:37:49;5.25;;;1.92;;
69253;SDS011;56364;41.816;12.448;2022-11-11T16:40:25;2.83;;;1.63;;
69253;SDS011;56364;41.816;12.448;2022-11-11T16:42:51;3.83;;;1.92;;
69253;SDS011;56364;41.816;12.448;2022-11-11T16:45:18;3.85;;;1.90;;
69253;SDS011;56364;41.816;12.448;2022-11-11T16:47:45;4.68;;;1.70;;
69253;SDS011;56364;41.816;12.448;2022-11-11T16:52:51;5.45;;;1.70;;
69253;SDS011;56364;41.816;12.448;2022-11-11T16:55:29;3.22;;;1.98;;
69253;SDS011;56364;41.816;12.448;2022-11-11T16:57:59;5.90;;;1.85;;
69253;SDS011;56364;41.816;12.448;2022-11-11T17:00:27;5.43;;;2.05;;
69253;SDS011;56364;41.816;12.448;2022-11-11T17:03:08;3.95;;;2.00;;
69253;SDS011;56364;41.816;12.448;2022-11-11T17:05:54;5.60;;;1.90;;
69253;SDS011;56364;41.816;12.448;2022-11-11T17:08:34;4.97;;;1.88;;
69253;SDS011;56364;41.816;12.448;2022-11-11T17:11:01;3.22;;;1.80;;
69253;SDS011;56364;41.816;12.448;2022-11-11T17:13:28;4.43;;;2.00;;
69253;SDS011;56364;41.816;12.448;2022-11-11T17:15:54;4.20;;;2.03;;
69253;SDS011;56364;41.816;12.448;2022-11-11T17:18:22;4.65;;;1.88;;
69253;SDS011;56364;41.816;12.448;2022-11-11T17:20:48;3.60;;;2.15;;
69253;SDS011;56364;41.816;12.448;2022-11-11T17:23:15;4.75;;;2.10;;
69253;SDS011;56364;41.816;12.448;2022-11-11T17:25:42;5.82;;;2.10;;
69253;SDS011;56364;41.816;12.448;2022-11-11T17:28:08;4.75;;;2.00;;
69253;SDS011;56364;41.816;12.448;2022-11-11T17:33:01;3.90;;;1.90;;
69253;SDS011;56364;41.816;12.448;2022-11-11T17:37:53;6.85;;;2.08;;
69253;SDS011;56364;41.816;12.448;2022-11-11T17:40:19;4.20;;;2.08;;
69253;SDS011;56364;41.816;12.448;2022-11-11T17:45:11;4.47;;;1.80;;
69253;SDS011;56364;41.816;12.448;2022-11-11T17:50:03;3.92;;;2.03;;
69253;SDS011;56364;41.816;12.448;2022-11-11T17:52:29;4.57;;;2.25;;
69253;SDS011;56364;41.816;12.448;2022-11-11T17:54:56;3.95;;;2.30;;
69253;SDS011;56364;41.816;12.448;2022-11-11T17:59:48;4.78;;;1.90;;
69253;SDS011;56364;41.816;12.448;2022-11-11T18:02:14;5.18;;;1.92;;
69253;SDS011;56364;41.816;12.448;2022-11-11T18:07:06;4.13;;;1.70;;
69253;SDS011;56364;41.816;12.448;2022-11-11T18:09:32;5.78;;;1.95;;
69253;SDS011;56364;41.816;12.448;2022-11-11T18:11:58;3.60;;;1.92;;
69253;SDS011;56364;41.816;12.448;2022-11-11T18:14:24;9.90;;;2.10;;
69253;SDS011;56364;41.816;12.448;2022-11-11T18:19:16;6.05;;;1.90;;
69253;SDS011;56364;41.816;12.448;2022-11-11T18:21:42;5.65;;;2.13;;
69253;SDS011;56364;41.816;12.448;2022-11-11T18:26:35;10.00;;;3.50;;
69253;SDS011;56364;41.816;12.448;2022-11-11T18:29:03;23.92;;;7.50;;
69253;SDS011;56364;41.816;12.448;2022-11-11T18:31:29;16.02;;;7.57;;
69253;SDS011;56364;41.816;12.448;2022-11-11T18:33:55;26.10;;;10.02;;
69253;SDS011;56364;41.816;12.448;2022-11-11T18:38:48;24.67;;;11.98;;
69253;SDS011;56364;41.816;12.448;2022-11-11T18:41:15;21.23;;;11.73;;
69253;SDS011;56364;41.816;12.448;2022-11-11T18:43:48;22.85;;;10.30;;
69253;SDS011;56364;41.816;12.448;2022-11-11T18:46:16;17.10;;;9.63;;
69253;SDS011;56364;41.816;12.448;2022-11-11T18:48:42;16.70;;;9.27;;
69253;SDS011;56364;41.816;12.448;2022-11-11T18:53:35;18.70;;;7.80;;
69253;SDS011;56364;41.816;12.448;2022-11-11T18:56:02;18.08;;;7.25;;
69253;SDS011;56364;41.816;12.448;2022-11-11T18:58:29;16.10;;;7.38;;
69253;SDS011;56364;41.816;12.448;2022-11-11T19:01:04;19.88;;;8.38;;
69253;SDS011;56364;41.816;12.448;2022-11-11T19:03:30;23.10;;;7.20;;
69253;SDS011;56364;41.816;12.448;2022-11-11T19:05:58;17.13;;;7.53;;
69253;SDS011;56364;41.816;12.448;2022-11-11T19:08:24;18.73;;;7.80;;
69253;SDS011;56364;41.816;12.448;2022-11-11T19:10:50;16.70;;;8.43;;
69253;SDS011;56364;41.816;12.448;2022-11-11T19:13:16;15.25;;;7.47;;
69253;SDS011;56364;41.816;12.448;2022-11-11T19:18:08;24.15;;;13.30;;
69253;SDS011;56364;41.816;12.448;2022-11-11T19:23:00;26.48;;;10.30;;
69253;SDS011;56364;41.816;12.448;2022-11-11T19:27:52;15.40;;;7.60;;
69253;SDS011;56364;41.816;12.448;2022-11-11T19:32:44;15.88;;;7.10;;
69253;SDS011;56364;41.816;12.448;2022-11-11T19:37:36;16.90;;;7.10;;
69253;SDS011;56364;41.816;12.448;2022-11-11T19:40:02;18.45;;;7.15;;
69253;SDS011;56364;41.816;12.448;2022-11-11T19:42:28;14.50;;;7.25;;
69253;SDS011;56364;41.816;12.448;2022-11-11T19:44:54;11.30;;;6.35;;
69253;SDS011;56364;41.816;12.448;2022-11-11T19:47:20;13.60;;;6.88;;
69253;SDS011;56364;41.816;12.448;2022-11-11T19:49:46;14.57;;;7.07;;
69253;SDS011;56364;41.816;12.448;2022-11-11T19:52:12;12.93;;;6.07;;
69253;SDS011;56364;41.816;12.448;2022-11-11T19:54:39;12.75;;;6.18;;
69253;SDS011;56364;41.816;12.448;2022-11-11T19:59:31;15.43;;;6.15;;
69253;SDS011;56364;41.816;12.448;2022-11-11T20:04:23;16.15;;;6.88;;
69253;SDS011;56364;41.816;12.448;2022-11-11T20:09:15;11.93;;;6.43;;
69253;SDS011;56364;41.816;12.448;2022-11-11T20:11:41;9.55;;;5.97;;
69253;SDS011;56364;41.816;12.448;2022-11-11T20:16:49;11.45;;;6.60;;
69253;SDS011;56364;41.816;12.448;2022-11-11T20:19:15;13.88;;;5.90;;
69253;SDS011;56364;41.816;12.448;2022-11-11T20:24:08;14.18;;;5.93;;
69253;SDS011;56364;41.816;12.448;2022-11-11T20:26:35;13.20;;;5.75;;
69253;SDS011;56364;41.816;12.448;2022-11-11T20:31:27;14.10;;;5.50;;
69253;SDS011;56364;41.816;12.448;2022-11-11T20:33:53;13.55;;;5.95;;
69253;SDS011;56364;41.816;12.448;2022-11-11T20:38:45;11.40;;;5.80;;
69253;SDS011;56364;41.816;12.448;2022-11-11T20:41:12;12.75;;;6.22;;
69253;SDS011;56364;41.816;12.448;2022-11-11T20:43:38;12.10;;;5.85;;
69253;SDS011;56364;41.816;12.448;2022-11-11T20:48:30;14.23;;;6.22;;